Time;durP1;ratioP1;P1;durP2;ratioP2;P2;SDS_P1;SDS_P2;PMS_P1;PMS_P2;Temp;Humidity;BMP_temperature;BMP_pressure;BME280_temperature;BME280_humidity;BME280_pressure;Samples;Min_cycle;Max_cycle;Signal;HPM_P1;HPM_P2
2021/05/23 00:02:00;;;;;;;4.95;4.40;;;6.50;99.90;;;;;;5073108;28;20112;-77
2021/05/23 00:04:26;;;;;;;4.95;3.80;;;6.50;99.90;;;;;;5074224;28;20063;-77
2021/05/23 00:06:51;;;;;;;5.80;4.30;;;6.40;99.90;;;;;;5074256;28;20029;-77
2021/05/23 00:09:17;;;;;;;6.90;3.95;;;6.40;99.90;;;;;;5074120;28;20474;-77
2021/05/23 00:11:43;;;;;;;3.67;3.35;;;6.30;99.90;;;;;;5074174;28;20066;-77
2021/05/23 00:14:09;;;;;;;4.45;3.30;;;6.30;99.90;;;;;;5072654;28;20065;-76
2021/05/23 00:16:34;;;;;;;5.18;3.47;;;6.30;99.90;;;;;;5074080;28;20032;-77
2021/05/23 00:19:00;;;;;;;4.65;3.75;;;6.20;99.90;;;;;;5073956;28;20035;-76
2021/05/23 00:21:26;;;;;;;4.13;2.97;;;6.20;99.90;;;;;;5072810;28;20040;-77
2021/05/23 00:23:53;;;;;;;4.80;3.63;;;6.20;99.90;;;;;;5064156;28;20021;-76
2021/05/23 00:26:19;;;;;;;7.03;4.63;;;6.10;99.90;;;;;;5053883;28;20037;-76
2021/05/23 00:28:47;;;;;;;4.80;3.60;;;6.10;99.90;;;;;;5052349;28;20025;-76
2021/05/23 00:31:12;;;;;;;8.13;4.13;;;6.00;99.90;;;;;;5054408;28;20111;-77
2021/05/23 00:33:38;;;;;;;9.35;4.40;;;5.90;99.90;;;;;;5052420;28;20526;-77
2021/05/23 00:36:04;;;;;;;8.43;4.72;;;6.00;99.90;;;;;;5053920;28;20433;-77
2021/05/23 00:38:30;;;;;;;8.98;5.45;;;6.00;99.90;;;;;;5053497;28;20108;-77
2021/05/23 00:40:55;;;;;;;6.82;4.80;;;5.90;99.90;;;;;;5053125;28;20120;-77
2021/05/23 00:43:21;;;;;;;6.75;4.25;;;5.90;99.90;;;;;;5051895;28;20450;-77
2021/05/23 00:45:49;;;;;;;6.13;4.40;;;5.90;99.90;;;;;;5051965;28;20071;-77
2021/05/23 00:48:15;;;;;;;8.13;4.10;;;5.90;99.90;;;;;;5053390;28;20071;-77
2021/05/23 00:50:41;;;;;;;6.25;3.75;;;5.80;99.90;;;;;;5052223;28;20029;-76
2021/05/23 00:53:08;;;;;;;4.72;3.97;;;5.80;99.90;;;;;;5053428;28;20029;-77
2021/05/23 00:55:35;;;;;;;5.82;3.88;;;5.70;99.90;;;;;;5052834;28;20028;-76
2021/05/23 00:58:01;;;;;;;5.13;3.50;;;5.70;99.90;;;;;;5052025;28;20513;-76
2021/05/23 01:00:33;;;;;;;3.88;3.53;;;5.70;99.90;;;;;;5053268;28;20040;-77
2021/05/23 01:03:02;;;;;;;5.88;3.75;;;5.60;99.90;;;;;;5052060;28;20021;-77
2021/05/23 01:05:29;;;;;;;4.45;4.05;;;5.60;99.90;;;;;;5053464;28;20504;-76
2021/05/23 01:07:55;;;;;;;5.38;3.72;;;5.50;99.90;;;;;;5051894;28;20029;-76
2021/05/23 01:10:25;;;;;;;24.38;8.63;;;5.50;99.90;;;;;;5051808;28;20021;-77
2021/05/23 01:12:57;;;;;;;19.15;8.02;;;5.50;99.90;;;;;;5051803;28;20426;-77
2021/05/23 01:15:36;;;;;;;9.32;4.78;;;5.40;99.90;;;;;;5053412;28;20031;-76
2021/05/23 01:18:06;;;;;;;16.23;4.43;;;5.40;99.90;;;;;;5051281;28;20518;-76
2021/05/23 01:20:49;;;;;;;13.30;5.50;;;5.30;99.90;;;;;;5052774;28;20064;-76
2021/05/23 01:23:29;;;;;;;13.20;5.72;;;5.30;99.90;;;;;;5052993;28;20021;-76
2021/05/23 01:26:13;;;;;;;6.05;4.38;;;5.40;99.90;;;;;;5053041;28;20036;-77
2021/05/23 01:29:09;;;;;;;7.15;4.28;;;5.30;99.90;;;;;;5052855;28;20048;-77
2021/05/23 01:31:35;;;;;;;7.63;4.25;;;5.30;99.90;;;;;;5052916;28;20035;-77
2021/05/23 01:34:02;;;;;;;7.72;4.28;;;5.20;99.90;;;;;;5051440;28;20063;-77
2021/05/23 01:36:31;;;;;;;7.35;3.75;;;5.20;99.90;;;;;;5051427;28;20021;-76
2021/05/23 01:38:59;;;;;;;6.63;3.95;;;5.10;99.90;;;;;;5052601;28;20029;-76
2021/05/23 01:41:26;;;;;;;7.07;3.88;;;5.10;99.90;;;;;;5051499;28;20467;-77
2021/05/23 01:43:52;;;;;;;7.68;4.32;;;5.10;99.90;;;;;;5054273;28;20120;-76
2021/05/23 01:46:18;;;;;;;12.52;6.40;;;5.00;99.90;;;;;;5071416;28;20048;-76
2021/05/23 01:48:43;;;;;;;15.20;5.55;;;5.00;99.90;;;;;;5071421;28;20027;-76
2021/05/23 01:51:10;;;;;;;28.23;11.18;;;5.00;99.90;;;;;;5072316;28;20017;-77
2021/05/23 01:53:37;;;;;;;45.08;13.27;;;4.90;99.90;;;;;;5071213;28;20103;-76
2021/05/23 01:56:06;;;;;;;61.88;15.65;;;4.80;99.90;;;;;;5072655;28;20013;-76
2021/05/23 01:58:32;;;;;;;58.15;16.00;;;4.80;99.90;;;;;;5072537;28;20043;-76
2021/05/23 02:00:58;;;;;;;26.85;11.50;;;4.80;99.90;;;;;;5070908;28;20032;-76
2021/05/23 02:03:25;;;;;;;12.75;6.32;;;4.80;99.90;;;;;;5071237;28;20043;-76
2021/05/23 02:05:55;;;;;;;10.05;4.80;;;4.70;99.90;;;;;;5072556;28;20226;-76
2021/05/23 02:08:24;;;;;;;7.13;5.13;;;4.70;99.90;;;;;;5074672;28;20020;-76
2021/05/23 02:10:52;;;;;;;13.75;7.22;;;4.70;99.90;;;;;;5073422;28;20020;-76
2021/05/23 02:13:19;;;;;;;18.05;7.53;;;4.70;99.90;;;;;;5076376;28;20396;-76
2021/05/23 02:15:45;;;;;;;21.27;10.13;;;4.70;99.90;;;;;;5074928;28;20151;-77
2021/05/23 02:18:12;;;;;;;22.85;8.27;;;4.70;99.90;;;;;;5076454;28;20025;-76
2021/05/23 02:20:38;;;;;;;24.85;7.63;;;4.70;99.90;;;;;;5076210;28;20434;-76
2021/05/23 02:23:06;;;;;;;26.63;9.70;;;4.60;99.90;;;;;;5076419;28;20480;-76
2021/05/23 02:25:33;;;;;;;23.98;7.70;;;4.70;99.90;;;;;;5076266;28;20094;-77
2021/05/23 02:28:06;;;;;;;19.75;8.40;;;4.60;99.90;;;;;;5075074;28;20107;-76
2021/05/23 02:30:35;;;;;;;11.38;5.28;;;4.60;99.90;;;;;;5068927;28;20025;-76
2021/05/23 02:33:03;;;;;;;7.65;4.97;;;4.60;99.90;;;;;;5056051;28;20036;-77
2021/05/23 02:35:32;;;;;;;8.25;4.28;;;4.60;99.90;;;;;;5054923;28;20025;-76
2021/05/23 02:37:58;;;;;;;6.32;4.15;;;4.60;99.90;;;;;;5054615;28;20391;-76
2021/05/23 02:40:27;;;;;;;8.27;5.07;;;4.50;99.90;;;;;;5056019;28;20037;-76
2021/05/23 02:42:54;;;;;;;5.00;3.80;;;4.50;99.90;;;;;;5055913;28;20029;-76
2021/05/23 02:45:19;;;;;;;6.72;4.43;;;4.40;99.90;;;;;;5056020;28;20021;-76
2021/05/23 02:47:46;;;;;;;7.35;4.80;;;4.40;99.90;;;;;;5054504;28;20455;-76
2021/05/23 02:50:24;;;;;;;6.43;4.38;;;4.40;99.90;;;;;;5054679;28;20024;-77
2021/05/23 02:52:50;;;;;;;15.73;6.22;;;4.40;99.90;;;;;;5055814;28;20036;-76
2021/05/23 02:55:18;;;;;;;14.43;8.27;;;4.40;99.90;;;;;;5055922;28;20027;-76
2021/05/23 02:57:45;;;;;;;21.85;7.32;;;4.30;99.90;;;;;;5054378;28;20021;-76
2021/05/23 03:00:14;;;;;;;27.77;11.02;;;4.30;99.90;;;;;;5056467;28;20033;-76
2021/05/23 03:02:41;;;;;;;35.63;11.25;;;4.30;99.90;;;;;;5074161;28;20100;-76
2021/05/23 03:05:09;;;;;;;26.75;11.15;;;4.30;99.90;;;;;;5075750;28;20028;-76
2021/05/23 03:07:38;;;;;;;21.40;9.32;;;4.40;99.90;;;;;;5075493;28;20016;-76
2021/05/23 03:10:10;;;;;;;24.73;8.68;;;4.30;99.90;;;;;;5075593;28;20025;-76
2021/05/23 03:12:36;;;;;;;12.88;8.00;;;4.40;99.90;;;;;;5074858;28;20028;-76
2021/05/23 03:15:04;;;;;;;8.55;5.55;;;4.40;99.90;;;;;;5074026;28;20070;-77
2021/05/23 03:17:30;;;;;;;7.07;4.85;;;4.40;99.90;;;;;;5075424;28;20024;-77
2021/05/23 03:19:55;;;;;;;7.60;5.55;;;4.50;99.90;;;;;;5073739;28;20043;-77
2021/05/23 03:22:21;;;;;;;11.95;6.65;;;4.70;99.90;;;;;;5074023;28;20036;-77
2021/05/23 03:24:47;;;;;;;8.98;5.78;;;4.80;99.90;;;;;;5075167;28;20021;-78
2021/05/23 03:27:12;;;;;;;7.22;5.43;;;5.00;99.90;;;;;;5075290;28;20451;-76
2021/05/23 03:29:38;;;;;;;8.73;5.25;;;5.20;99.90;;;;;;5074442;28;20017;-77
2021/05/23 03:32:04;;;;;;;8.00;5.63;;;5.60;99.90;;;;;;5073868;28;20052;-76
2021/05/23 03:34:30;;;;;;;9.00;5.55;;;5.90;99.90;;;;;;5075258;28;20024;-77
2021/05/23 03:36:55;;;;;;;11.52;5.35;;;6.10;99.90;;;;;;5073826;28;20028;-76
2021/05/23 03:39:21;;;;;;;14.70;6.72;;;6.30;99.90;;;;;;5074805;28;20043;-76
2021/05/23 03:41:47;;;;;;;8.23;5.60;;;6.40;99.90;;;;;;5073709;28;20390;-77
2021/05/23 03:44:12;;;;;;;12.15;7.18;;;6.60;99.90;;;;;;5074751;28;20052;-76
2021/05/23 03:46:38;;;;;;;23.00;9.43;;;6.60;99.90;;;;;;5073506;28;20023;-77
2021/05/23 03:49:04;;;;;;;38.67;11.93;;;6.50;99.90;;;;;;5073419;28;20024;-76
2021/05/23 03:51:30;;;;;;;25.17;8.60;;;6.50;99.90;;;;;;5074681;28;20112;-76
2021/05/23 03:53:56;;;;;;;20.33;9.43;;;6.40;99.90;;;;;;5073367;28;20116;-76
2021/05/23 03:56:21;;;;;;;22.15;8.35;;;6.40;99.90;;;;;;5073431;28;20025;-76
2021/05/23 03:58:47;;;;;;;18.13;7.38;;;6.40;99.90;;;;;;5068325;28;20032;-76
2021/05/23 04:01:13;;;;;;;19.75;8.38;;;6.50;99.90;;;;;;5053336;28;20024;-76
2021/05/23 04:03:38;;;;;;;22.05;9.07;;;6.70;99.90;;;;;;5054328;28;20025;-76
2021/05/23 04:06:04;;;;;;;21.65;8.25;;;6.90;99.90;;;;;;5054440;28;20145;-76
2021/05/23 04:08:30;;;;;;;25.20;10.43;;;7.10;99.90;;;;;;5054338;28;20032;-77
2021/05/23 04:11:06;;;;;;;34.30;12.30;;;7.40;99.90;;;;;;5054421;28;20032;-77
2021/05/23 04:13:34;;;;;;;16.98;7.53;;;7.60;99.90;;;;;;5064740;28;20083;-77
2021/05/23 04:15:59;;;;;;;22.25;8.50;;;7.80;99.90;;;;;;5072807;28;20021;-77
2021/05/23 04:18:25;;;;;;;20.75;7.80;;;8.00;99.90;;;;;;5072940;28;20390;-78
2021/05/23 04:20:51;;;;;;;13.15;7.00;;;8.20;99.90;;;;;;5072645;28;20041;-76
2021/05/23 04:23:17;;;;;;;16.75;6.20;;;8.40;99.90;;;;;;5072722;28;20020;-77
2021/05/23 04:25:42;;;;;;;13.80;7.55;;;8.70;99.90;;;;;;5073980;28;20455;-77
2021/05/23 04:28:08;;;;;;;20.15;10.18;;;8.90;99.90;;;;;;5072600;28;20551;-77
2021/05/23 04:30:34;;;;;;;11.98;7.13;;;8.90;99.90;;;;;;5053056;28;20036;-78
2021/05/23 04:33:01;;;;;;;14.75;7.53;;;9.10;99.90;;;;;;5053927;28;20112;-77
2021/05/23 04:35:27;;;;;;;27.25;10.50;;;9.30;99.90;;;;;;5053895;28;20381;-77
2021/05/23 04:37:54;;;;;;;61.95;16.02;;;9.40;99.90;;;;;;5052571;28;20440;-77
2021/05/23 04:40:20;;;;;;;40.65;14.88;;;9.50;99.90;;;;;;5052355;28;20079;-77
2021/05/23 04:42:47;;;;;;;38.35;11.70;;;9.50;99.90;;;;;;5053711;28;20025;-77
2021/05/23 04:45:15;;;;;;;18.45;7.00;;;9.60;99.90;;;;;;5052427;28;20025;-77
2021/05/23 04:47:41;;;;;;;21.17;7.45;;;9.60;99.90;;;;;;5051215;28;20032;-77
2021/05/23 04:50:10;;;;;;;21.77;9.85;;;9.70;99.90;;;;;;5052135;28;20035;-77
2021/05/23 04:52:36;;;;;;;30.92;11.40;;;9.90;99.90;;;;;;5052291;28;20025;-77
2021/05/23 04:55:04;;;;;;;17.45;8.05;;;10.10;99.90;;;;;;5053627;28;20116;-78
2021/05/23 04:57:29;;;;;;;14.48;6.35;;;10.30;99.90;;;;;;5062212;28;20028;-77
2021/05/23 04:59:55;;;;;;;12.27;6.85;;;10.50;99.90;;;;;;5073255;28;20033;-77
2021/05/23 05:02:21;;;;;;;11.10;5.43;;;10.60;99.90;;;;;;5071735;28;20028;-77
2021/05/23 05:04:47;;;;;;;10.98;5.35;;;10.80;99.90;;;;;;5073326;28;20071;-77
2021/05/23 05:07:13;;;;;;;6.43;4.40;;;10.80;99.90;;;;;;5072057;28;20036;-77
2021/05/23 05:09:39;;;;;;;7.05;4.97;;;11.00;99.90;;;;;;5073116;28;20021;-78
2021/05/23 05:12:05;;;;;;;11.48;5.03;;;11.20;99.90;;;;;;5072780;28;20078;-78
2021/05/23 05:14:31;;;;;;;8.20;4.45;;;11.40;99.90;;;;;;5071278;28;20371;-77
2021/05/23 05:16:57;;;;;;;11.43;5.85;;;11.60;99.90;;;;;;5071983;28;20027;-78
2021/05/23 05:19:23;;;;;;;14.02;7.65;;;11.70;99.90;;;;;;5071508;28;20141;-77
2021/05/23 05:21:48;;;;;;;9.32;4.57;;;11.80;99.90;;;;;;5073180;28;20034;-78
2021/05/23 05:24:14;;;;;;;6.13;4.28;;;11.90;99.90;;;;;;5073299;28;20141;-77
2021/05/23 05:26:40;;;;;;;7.47;4.28;;;12.00;99.90;;;;;;5070326;28;20489;-77
2021/05/23 05:29:06;;;;;;;6.00;4.10;;;12.10;99.90;;;;;;5052788;28;20021;-77
2021/05/23 05:31:32;;;;;;;6.88;3.65;;;12.30;99.90;;;;;;5052848;28;20368;-77
2021/05/23 05:33:58;;;;;;;7.00;3.10;;;12.40;96.50;;;;;;5052933;28;20459;-77
2021/05/23 05:36:24;;;;;;;10.40;5.00;;;12.50;97.40;;;;;;5052837;28;20067;-77
2021/05/23 05:38:50;;;;;;;12.90;5.47;;;12.60;96.60;;;;;;5051356;28;20032;-77
2021/05/23 05:41:16;;;;;;;7.78;5.50;;;12.80;97.70;;;;;;5051846;28;20029;-77
2021/05/23 05:43:42;;;;;;;5.82;3.65;;;12.90;97.60;;;;;;5052646;28;20462;-77
2021/05/23 05:46:08;;;;;;;4.32;3.17;;;13.00;95.60;;;;;;5051418;28;20112;-78
2021/05/23 05:48:35;;;;;;;4.38;2.88;;;13.10;96.40;;;;;;5051425;28;20021;-77
2021/05/23 05:51:01;;;;;;;3.90;2.92;;;13.20;95.30;;;;;;5052815;28;20126;-77
2021/05/23 05:53:27;;;;;;;5.28;2.92;;;13.20;93.30;;;;;;5050701;28;20098;-77
2021/05/23 05:55:53;;;;;;;5.47;2.67;;;13.30;94.20;;;;;;5052595;28;20025;-77
2021/05/23 05:58:18;;;;;;;4.60;2.80;;;13.40;93.50;;;;;;5052513;28;20028;-77
2021/05/23 06:00:44;;;;;;;3.30;2.58;;;13.30;93.70;;;;;;5051042;28;20029;-76
2021/05/23 06:03:10;;;;;;;6.22;2.75;;;13.40;93.80;;;;;;5051367;28;20070;-76
2021/05/23 06:05:35;;;;;;;6.03;2.67;;;13.50;99.50;;;;;;5052767;28;20073;-76
2021/05/23 06:08:01;;;;;;;6.03;2.63;;;13.50;97.90;;;;;;5052346;28;20115;-77
2021/05/23 06:10:27;;;;;;;6.32;2.78;;;13.60;97.70;;;;;;5052347;28;20017;-78
2021/05/23 06:12:52;;;;;;;4.30;2.33;;;13.60;91.90;;;;;;5051113;28;20451;-77
2021/05/23 06:15:19;;;;;;;4.07;2.33;;;13.70;94.90;;;;;;5051250;28;20518;-77
2021/05/23 06:17:44;;;;;;;5.82;2.40;;;13.70;93.90;;;;;;5051141;28;20033;-76
2021/05/23 06:20:11;;;;;;;4.90;2.60;;;13.80;95.60;;;;;;5052373;28;20040;-78
2021/05/23 06:22:37;;;;;;;4.55;2.40;;;13.90;99.90;;;;;;5052374;28;20021;-77
2021/05/23 06:25:07;;;;;;;4.57;2.78;;;13.80;98.20;;;;;;5061455;28;20150;-77
2021/05/23 06:27:33;;;;;;;4.05;2.47;;;13.80;97.00;;;;;;5060855;28;20029;-77
2021/05/23 06:29:59;;;;;;;7.30;3.60;;;13.90;97.20;;;;;;5060260;28;20028;-78
2021/05/23 06:32:25;;;;;;;5.80;3.42;;;13.90;96.80;;;;;;5058377;28;20021;-77
2021/05/23 06:34:51;;;;;;;7.57;3.45;;;13.90;97.20;;;;;;5061233;28;20397;-78
2021/05/23 06:37:16;;;;;;;5.97;4.20;;;13.90;92.80;;;;;;5062151;28;20077;-77
2021/05/23 06:39:42;;;;;;;5.20;2.70;;;14.00;92.40;;;;;;5062252;28;20087;-77
2021/05/23 06:42:08;;;;;;;4.88;3.95;;;14.00;89.60;;;;;;5060154;28;20021;-76
2021/05/23 06:44:34;;;;;;;10.98;5.93;;;14.10;88.80;;;;;;5062443;28;20032;-77
2021/05/23 06:47:00;;;;;;;5.15;2.63;;;14.10;88.10;;;;;;5062606;28;20433;-77
2021/05/23 06:49:26;;;;;;;3.50;2.30;;;14.20;87.60;;;;;;5063357;28;20017;-77
2021/05/23 06:51:52;;;;;;;9.65;3.20;;;14.20;87.00;;;;;;5064604;28;20031;-77
2021/05/23 06:54:17;;;;;;;5.68;3.42;;;14.40;87.10;;;;;;5065671;28;20063;-77
2021/05/23 06:56:43;;;;;;;3.03;2.65;;;14.30;84.80;;;;;;5064457;28;20025;-78
2021/05/23 06:59:09;;;;;;;5.85;2.78;;;14.50;83.90;;;;;;5062937;28;20024;-77
2021/05/23 07:01:34;;;;;;;5.22;2.75;;;14.60;90.00;;;;;;5066088;28;20043;-77
2021/05/23 07:04:00;;;;;;;2.85;2.50;;;14.70;87.70;;;;;;5066077;28;20025;-76
2021/05/23 07:06:26;;;;;;;5.72;2.72;;;14.70;83.20;;;;;;5064946;28;20119;-77
2021/05/23 07:08:52;;;;;;;5.78;3.60;;;14.70;85.20;;;;;;5064524;28;20535;-77
2021/05/23 07:11:18;;;;;;;3.72;2.50;;;14.70;85.80;;;;;;5070841;28;20029;-77
2021/05/23 07:13:44;;;;;;;7.80;3.80;;;14.60;83.10;;;;;;5062544;28;20529;-77
2021/05/23 07:16:10;;;;;;;4.90;3.30;;;14.70;85.60;;;;;;5064559;28;20008;-77
2021/05/23 07:18:35;;;;;;;4.10;2.83;;;14.70;84.90;;;;;;5061156;28;20033;-77
2021/05/23 07:21:01;;;;;;;3.95;2.80;;;14.70;81.50;;;;;;5055483;28;20044;-78
2021/05/23 07:23:28;;;;;;;4.35;2.63;;;14.70;82.50;;;;;;5055495;28;20021;-77
2021/05/23 07:25:54;;;;;;;4.45;2.60;;;15.00;81.30;;;;;;5054242;28;20052;-76
2021/05/23 07:28:20;;;;;;;3.92;2.60;;;15.10;80.20;;;;;;5070278;28;20533;-76
2021/05/23 07:30:46;;;;;;;2.60;2.15;;;15.20;77.80;;;;;;5061880;28;20028;-77
2021/05/23 07:33:14;;;;;;;5.32;2.67;;;15.30;75.70;;;;;;5067704;28;20027;-76
2021/05/23 07:35:41;;;;;;;6.82;2.60;;;15.30;75.80;;;;;;5068089;28;20399;-76
2021/05/23 07:38:07;;;;;;;5.18;2.17;;;15.50;74.00;;;;;;5069463;28;20029;-76
2021/05/23 07:40:33;;;;;;;7.57;2.85;;;15.50;75.20;;;;;;5069170;28;20033;-77
2021/05/23 07:42:58;;;;;;;6.35;2.50;;;15.70;77.20;;;;;;5069029;28;20027;-77
2021/05/23 07:45:24;;;;;;;3.90;2.15;;;15.70;74.50;;;;;;5067585;28;20440;-78
2021/05/23 07:47:50;;;;;;;4.00;2.47;;;15.70;77.10;;;;;;5070059;28;20379;-77
2021/05/23 07:50:15;;;;;;;5.28;2.50;;;15.80;74.70;;;;;;5070128;28;20405;-77
2021/05/23 07:52:41;;;;;;;4.85;2.67;;;15.90;73.90;;;;;;5068947;28;20039;-76
2021/05/23 07:55:08;;;;;;;2.92;2.33;;;15.90;75.50;;;;;;5068401;28;20017;-77
2021/05/23 07:57:34;;;;;;;4.00;2.63;;;16.00;73.00;;;;;;5065267;28;20120;-77
2021/05/23 07:59:59;;;;;;;3.83;3.42;;;16.00;69.80;;;;;;5068078;28;20123;-77
2021/05/23 08:02:25;;;;;;;3.47;2.50;;;16.10;73.60;;;;;;5068112;28;20031;-76
2021/05/23 08:04:51;;;;;;;5.95;2.80;;;16.10;70.70;;;;;;5068075;28;20047;-77
2021/05/23 08:07:17;;;;;;;3.47;2.67;;;16.00;68.50;;;;;;5067256;28;20024;-77
2021/05/23 08:09:42;;;;;;;3.67;2.83;;;16.10;72.80;;;;;;5070552;28;20031;-77
2021/05/23 08:12:08;;;;;;;3.90;2.13;;;16.20;70.70;;;;;;5069427;28;20488;-76
2021/05/23 08:14:34;;;;;;;4.53;2.65;;;16.10;66.60;;;;;;5067262;28;20096;-77
2021/05/23 08:16:59;;;;;;;7.30;3.33;;;16.30;67.20;;;;;;5068246;28;20020;-77
2021/05/23 08:19:25;;;;;;;3.63;2.30;;;16.30;66.10;;;;;;5068583;28;20469;-77
2021/05/23 08:21:51;;;;;;;5.72;2.70;;;16.60;71.30;;;;;;5066146;28;20037;-78
2021/05/23 08:24:17;;;;;;;3.42;2.45;;;16.80;68.60;;;;;;5067494;28;20024;-77
2021/05/23 08:26:43;;;;;;;3.85;2.38;;;17.00;64.20;;;;;;5068332;28;20016;-78
2021/05/23 08:29:08;;;;;;;3.42;2.53;;;17.10;65.30;;;;;;5070343;28;20078;-77
2021/05/23 08:31:34;;;;;;;6.60;4.50;;;17.20;61.10;;;;;;5067212;28;20043;-78
2021/05/23 08:34:00;;;;;;;6.25;2.80;;;17.00;59.60;;;;;;5066511;28;20036;-77
2021/05/23 08:36:26;;;;;;;5.68;3.13;;;16.90;59.60;;;;;;5069893;28;20024;-77
2021/05/23 08:38:52;;;;;;;4.43;3.50;;;17.00;63.30;;;;;;5071126;28;20031;-77
2021/05/23 08:41:19;;;;;;;4.55;3.40;;;17.00;61.20;;;;;;5068849;28;20589;-79
2021/05/23 08:43:47;;;;;;;8.00;3.17;;;17.10;61.40;;;;;;5071293;28;20107;-78
2021/05/23 08:46:13;;;;;;;5.28;3.30;;;16.90;58.70;;;;;;5068732;28;20020;-78
2021/05/23 08:48:40;;;;;;;6.85;3.33;;;17.10;63.70;;;;;;5069897;28;20029;-76
2021/05/23 08:51:07;;;;;;;3.80;3.10;;;17.20;60.90;;;;;;5067990;28;20444;-77
2021/05/23 08:53:33;;;;;;;8.27;3.08;;;17.40;61.20;;;;;;5070418;28;20462;-77
2021/05/23 08:55:59;;;;;;;6.88;3.60;;;17.70;65.20;;;;;;5069679;28;20032;-77
2021/05/23 08:58:25;;;;;;;9.18;3.45;;;17.60;60.20;;;;;;5067712;28;20020;-77
2021/05/23 09:00:51;;;;;;;6.88;3.78;;;17.60;59.70;;;;;;5069254;28;20124;-78
2021/05/23 09:03:18;;;;;;;8.20;4.15;;;17.70;59.70;;;;;;5070947;28;20103;-77
2021/05/23 09:05:48;;;;;;;6.68;3.67;;;17.90;58.80;;;;;;5069364;28;20159;-76
2021/05/23 09:08:23;;;;;;;7.63;4.38;;;18.00;58.80;;;;;;5069990;28;20028;-76
2021/05/23 09:10:50;;;;;;;7.05;2.85;;;18.00;59.30;;;;;;5070370;28;20043;-77
2021/05/23 09:13:35;;;;;;;5.95;2.72;;;18.00;57.60;;;;;;5070101;28;20033;-76
2021/05/23 09:16:10;;;;;;;5.45;2.97;;;17.70;57.80;;;;;;5070877;28;20596;-77
2021/05/23 09:18:50;;;;;;;7.22;3.03;;;17.80;58.80;;;;;;5070747;28;20028;-77
2021/05/23 09:21:22;;;;;;;3.65;2.60;;;17.90;58.80;;;;;;5069125;28;20036;-77
2021/05/23 09:23:54;;;;;;;4.40;2.78;;;17.90;59.90;;;;;;5069792;28;20454;-77
2021/05/23 09:26:23;;;;;;;3.60;2.50;;;18.00;59.20;;;;;;5067975;28;20043;-77
2021/05/23 09:28:51;;;;;;;4.20;2.53;;;18.10;59.40;;;;;;5069541;28;20071;-77
2021/05/23 09:31:20;;;;;;;2.65;2.45;;;18.10;60.50;;;;;;5069850;28;20066;-77
2021/05/23 09:33:49;;;;;;;3.33;2.20;;;18.20;58.30;;;;;;5066684;28;20029;-78
2021/05/23 09:36:17;;;;;;;4.30;2.55;;;18.20;57.10;;;;;;5068006;28;20508;-77
2021/05/23 09:39:00;;;;;;;2.90;2.20;;;18.20;56.00;;;;;;5068501;28;20108;-77
2021/05/23 09:41:41;;;;;;;3.10;2.50;;;18.40;57.90;;;;;;5068081;28;20068;-77
2021/05/23 09:44:22;;;;;;;5.35;2.20;;;18.40;56.00;;;;;;5067512;28;20020;-77
2021/05/23 09:46:59;;;;;;;4.07;2.33;;;18.60;57.60;;;;;;5069033;28;20020;-77
2021/05/23 09:49:27;;;;;;;4.93;2.38;;;18.90;56.30;;;;;;5069275;28;20393;-77
2021/05/23 09:51:58;;;;;;;4.68;1.83;;;19.20;57.70;;;;;;5068832;28;20043;-77
2021/05/23 09:54:26;;;;;;;4.88;2.20;;;19.30;53.70;;;;;;5070053;28;20020;-76
2021/05/23 09:56:52;;;;;;;2.00;1.60;;;19.40;53.80;;;;;;5062672;28;20398;-77
2021/05/23 09:59:25;;;;;;;5.28;2.05;;;19.40;53.50;;;;;;5069041;28;20568;-77
2021/05/23 10:01:52;;;;;;;1.70;1.60;;;19.30;54.00;;;;;;5071069;28;20028;-77
2021/05/23 10:04:25;;;;;;;5.57;2.72;;;19.50;53.90;;;;;;5069566;28;20569;-77
2021/05/23 10:07:03;;;;;;;3.95;2.28;;;19.20;53.70;;;;;;5068319;28;20056;-77
2021/05/23 10:09:29;;;;;;;7.30;2.67;;;19.20;55.40;;;;;;5069333;28;20025;-78
2021/05/23 10:11:56;;;;;;;4.15;3.17;;;19.00;54.70;;;;;;5069347;28;20505;-78
2021/05/23 10:14:23;;;;;;;3.60;2.13;;;18.70;54.50;;;;;;5068579;28;20028;-77
2021/05/23 10:16:52;;;;;;;3.75;2.20;;;18.60;55.50;;;;;;5068313;28;20043;-77
2021/05/23 10:19:22;;;;;;;4.18;2.97;;;18.40;55.00;;;;;;5066303;28;20028;-78
2021/05/23 10:21:49;;;;;;;4.80;2.88;;;18.30;55.80;;;;;;5069504;28;20063;-78
2021/05/23 10:24:47;;;;;;;4.50;2.25;;;18.10;55.10;;;;;;5069214;28;20024;-77
2021/05/23 10:27:16;;;;;;;4.07;2.22;;;17.90;57.50;;;;;;5066500;28;20055;-78
2021/05/23 10:29:55;;;;;;;3.70;1.75;;;17.80;55.20;;;;;;5068373;28;20017;-78
2021/05/23 10:32:27;;;;;;;3.75;3.00;;;17.90;57.20;;;;;;5069828;28;20193;-77
2021/05/23 10:34:53;;;;;;;3.70;1.60;;;17.80;56.40;;;;;;5070238;28;20016;-78
2021/05/23 10:37:27;;;;;;;2.15;1.42;;;17.70;55.80;;;;;;5070048;28;20201;-77
2021/05/23 10:39:54;;;;;;;1.73;1.20;;;17.80;56.60;;;;;;5071924;28;20045;-77
2021/05/23 10:42:24;;;;;;;3.78;1.92;;;17.60;54.10;;;;;;5068762;28;20024;-77
2021/05/23 10:44:52;;;;;;;6.28;1.50;;;17.50;54.30;;;;;;5073719;28;20029;-77
2021/05/23 10:47:29;;;;;;;4.43;1.50;;;17.50;55.50;;;;;;5074116;28;20474;-76
2021/05/23 10:49:57;;;;;;;3.75;2.25;;;17.40;56.70;;;;;;5067800;28;20028;-76
2021/05/23 10:52:28;;;;;;;4.50;1.92;;;17.30;57.20;;;;;;5073740;28;20123;-77
2021/05/23 10:55:15;;;;;;;5.57;1.80;;;17.20;58.00;;;;;;5073708;28;20378;-77
2021/05/23 10:57:49;;;;;;;2.70;1.27;;;17.10;58.00;;;;;;5071030;28;20111;-80
2021/05/23 11:00:36;;;;;;;6.13;3.22;;;16.90;59.60;;;;;;5068581;28;20044;-79
2021/05/23 11:03:16;;;;;;;6.55;2.67;;;16.80;62.60;;;;;;5068863;28;20032;-79
2021/05/23 11:05:42;;;;;;;15.27;11.93;;;16.50;64.80;;;;;;5069710;28;20486;-79
2021/05/23 11:08:12;;;;;;;17.08;14.45;;;16.50;69.60;;;;;;5069211;28;20020;-79
2021/05/23 11:10:38;;;;;;;7.70;6.90;;;16.50;75.30;;;;;;5065958;28;20040;-78
2021/05/23 11:13:04;;;;;;;5.57;3.53;;;16.50;81.80;;;;;;5071092;28;20371;-77
2021/05/23 11:15:43;;;;;;;4.97;2.00;;;16.60;84.10;;;;;;5071148;28;20023;-77
2021/05/23 11:18:09;;;;;;;6.45;2.25;;;16.70;84.50;;;;;;5071746;28;20025;-77
2021/05/23 11:20:35;;;;;;;2.47;1.77;;;16.70;82.90;;;;;;5067616;28;20032;-77
2021/05/23 11:23:05;;;;;;;6.30;5.68;;;16.60;85.80;;;;;;5070286;28;20504;-77
2021/05/23 11:25:32;;;;;;;6.40;3.15;;;16.50;81.50;;;;;;5067973;28;20021;-77
2021/05/23 11:28:08;;;;;;;4.25;2.65;;;16.40;81.60;;;;;;5070935;28;20035;-77
2021/05/23 11:30:38;;;;;;;2.50;2.13;;;16.30;85.50;;;;;;5068741;28;20017;-77
2021/05/23 11:33:11;;;;;;;4.80;2.00;;;16.20;69.90;;;;;;5065507;28;20024;-77
2021/05/23 11:35:41;;;;;;;5.15;2.35;;;16.20;67.00;;;;;;5069959;28;20070;-77
2021/05/23 11:38:08;;;;;;;8.93;5.93;;;16.40;68.90;;;;;;5071673;28;20023;-77
2021/05/23 11:40:35;;;;;;;5.43;4.63;;;16.30;69.70;;;;;;5071079;28;20139;-77
2021/05/23 11:43:21;;;;;;;8.82;5.32;;;16.20;79.60;;;;;;5069206;28;20036;-77
2021/05/23 11:45:54;;;;;;;5.45;3.22;;;16.20;84.50;;;;;;5065869;28;20035;-77
2021/05/23 11:48:49;;;;;;;9.98;4.95;;;16.20;74.60;;;;;;5070414;28;20051;-77
2021/05/23 11:51:21;;;;;;;15.77;6.93;;;15.90;89.30;;;;;;5070905;28;20040;-78
2021/05/23 11:53:48;;;;;;;11.52;4.78;;;15.80;74.80;;;;;;5070933;28;20013;-81
2021/05/23 11:56:16;;;;;;;3.72;2.40;;;15.60;64.50;;;;;;5070395;28;20043;-80
2021/05/23 11:58:45;;;;;;;5.72;2.08;;;15.10;67.40;;;;;;5065025;28;20034;-80
2021/05/23 12:01:15;;;;;;;2.47;1.98;;;14.50;73.40;;;;;;5070974;28;20186;-77
2021/05/23 12:03:41;;;;;;;3.85;1.45;;;14.00;70.80;;;;;;5072115;28;20037;-77
2021/05/23 12:06:17;;;;;;;6.35;1.83;;;13.50;70.10;;;;;;5062243;28;20262;-77
2021/05/23 12:08:43;;;;;;;47.08;17.40;;;13.10;73.10;;;;;;5070744;28;20033;-78
2021/05/23 12:11:09;;;;;;;35.65;19.23;;;13.00;75.50;;;;;;5070541;28;20374;-78
2021/05/23 12:13:49;;;;;;;9.70;5.63;;;12.80;80.40;;;;;;5068969;28;20020;-77
2021/05/23 12:16:19;;;;;;;2.90;1.90;;;12.70;80.70;;;;;;5070666;28;20036;-79
2021/05/23 12:18:54;;;;;;;3.80;1.92;;;12.60;77.00;;;;;;5066302;28;20482;-75
2021/05/23 12:21:23;;;;;;;3.33;1.70;;;12.50;76.30;;;;;;5070352;28;20428;-76
2021/05/23 12:23:54;;;;;;;2.03;1.00;;;12.60;80.60;;;;;;5071802;28;20389;-81
2021/05/23 12:26:20;;;;;;;2.88;1.40;;;12.30;81.10;;;;;;5071947;28;20016;-78
2021/05/23 12:28:47;;;;;;;10.57;3.63;;;12.30;78.90;;;;;;5073799;28;20138;-79
2021/05/23 12:31:18;;;;;;;14.48;6.88;;;12.40;88.50;;;;;;5073421;28;20529;-78
2021/05/23 12:33:55;;;;;;;25.15;11.07;;;12.40;90.10;;;;;;5072519;28;20036;-79
2021/05/23 12:36:23;;;;;;;12.63;5.75;;;12.40;96.80;;;;;;5073870;28;20428;-78
2021/05/23 12:39:07;;;;;;;6.30;4.43;;;12.30;89.10;;;;;;5073803;28;20029;-79
2021/05/23 12:41:36;;;;;;;3.10;1.70;;;12.20;92.20;;;;;;5071239;28;20390;-78
2021/05/23 12:44:03;;;;;;;4.85;2.17;;;12.10;87.50;;;;;;5071369;28;20067;-78
2021/05/23 12:46:29;;;;;;;4.90;3.22;;;12.00;96.70;;;;;;5063840;28;20055;-78
2021/05/23 12:48:54;;;;;;;2.90;2.20;;;12.10;94.40;;;;;;5053152;28;20029;-79
2021/05/23 12:51:23;;;;;;;16.95;9.90;;;12.10;93.90;;;;;;5052593;28;20473;-79
2021/05/23 12:53:54;;;;;;;6.15;4.03;;;12.20;99.90;;;;;;5068741;28;20379;-79